createdAt,value
2019-05-13T00:00:14.087Z,59.97
2019-05-13T00:02:43.851Z,58.75
2019-05-13T00:05:14.417Z,59.15
2019-05-13T00:07:43.812Z,59.19
2019-05-13T00:10:14.614Z,58.85
2019-05-13T00:12:44.637Z,58.90
2019-05-13T00:15:13.943Z,58.70
2019-05-13T00:17:44.331Z,58.30
2019-05-13T00:20:14.163Z,58.92
2019-05-13T00:22:44.392Z,58.36
2019-05-13T00:25:14.287Z,59.05
2019-05-13T00:27:44.341Z,58.55
2019-05-13T00:30:14.229Z,58.92
2019-05-13T00:32:44.519Z,59.45
2019-05-13T00:35:14.220Z,59.18
2019-05-13T00:37:44.264Z,59.13
2019-05-13T00:40:14.310Z,60.10
2019-05-13T00:42:44.185Z,59.92
2019-05-13T00:45:14.498Z,60.62
2019-05-13T00:47:44.303Z,60.69
2019-05-13T00:50:14.228Z,59.78
2019-05-13T00:52:44.582Z,60.13
2019-05-13T00:55:14.478Z,62.26
2019-05-13T00:57:43.732Z,62.46
2019-05-13T01:00:14.177Z,62.26
2019-05-13T01:02:44.484Z,63.45
2019-05-13T01:05:14.382Z,64.08
2019-05-13T01:07:44.398Z,63.90
2019-05-13T01:10:13.369Z,63.96
2019-05-13T01:12:44.138Z,63.31
2019-05-13T01:15:13.693Z,63.37
2019-05-13T01:17:41.440Z,65.40
2019-05-13T01:20:09.821Z,66.07
2019-05-13T01:22:37.797Z,65.06
2019-05-13T01:25:06.156Z,66.21
2019-05-13T01:27:34.248Z,65.99
2019-05-13T01:30:04.176Z,65.44
2019-05-13T01:32:34.205Z,65.24
2019-05-13T01:35:04.454Z,66.10
2019-05-13T01:37:41.648Z,66.06
2019-05-13T01:40:04.930Z,66.84
2019-05-13T01:42:33.684Z,66.41
2019-05-13T01:45:04.518Z,65.88
2019-05-13T01:47:34.397Z,66.39
2019-05-13T01:50:04.048Z,67.35
2019-05-13T01:52:34.355Z,67.24
2019-05-13T01:55:04.047Z,67.26
2019-05-13T01:57:34.132Z,68.47
2019-05-13T02:00:04.535Z,69.01
2019-05-13T02:02:33.726Z,68.50
2019-05-13T02:05:03.945Z,68.88
2019-05-13T02:07:33.520Z,70.01
2019-05-13T02:10:04.267Z,71.47
2019-05-13T02:12:34.030Z,70.51
2019-05-13T02:15:04.468Z,69.59
2019-05-13T02:17:33.712Z,69.45
2019-05-13T02:20:03.859Z,69.05
2019-05-13T02:22:33.631Z,69.57
2019-05-13T02:25:04.165Z,69.12
2019-05-13T02:27:31.661Z,69.52
2019-05-13T02:29:59.880Z,68.53
2019-05-13T02:32:28.022Z,68.89
2019-05-13T02:34:55.913Z,69.02
2019-05-13T02:37:24.100Z,69.03
2019-05-13T02:39:53.186Z,68.66
2019-05-13T02:42:22.871Z,68.83
2019-05-13T02:44:52.905Z,68.41
2019-05-13T02:47:22.614Z,68.55
2019-05-13T02:49:53.359Z,67.36
2019-05-13T02:52:22.351Z,67.45
2019-05-13T02:54:52.765Z,67.53
2019-05-13T02:57:23.346Z,66.91
2019-05-13T02:59:52.675Z,68.06
2019-05-13T03:02:22.358Z,68.71
2019-05-13T03:04:52.289Z,66.91
2019-05-13T03:07:23.295Z,66.89
2019-05-13T03:09:52.719Z,67.57
2019-05-13T03:12:23.127Z,66.82
2019-05-13T03:14:53.159Z,65.78
2019-05-13T03:17:25.868Z,66.00
2019-05-13T03:19:53.894Z,65.99
2019-05-13T03:22:22.594Z,65.35
2019-05-13T03:24:52.364Z,64.93
2019-05-13T03:27:24.877Z,64.91
2019-05-13T03:29:53.302Z,65.29
2019-05-13T03:32:26.753Z,65.45
2019-05-13T03:34:56.060Z,64.75
2019-05-13T03:37:26.045Z,65.93
2019-05-13T03:39:52.347Z,66.02
2019-05-13T03:42:23.264Z,65.84
2019-05-13T03:44:54.269Z,65.14
2019-05-13T03:47:23.470Z,64.36
2019-05-13T03:49:55.848Z,64.33
2019-05-13T03:52:24.094Z,63.70
2019-05-13T03:54:52.242Z,63.91
2019-05-13T03:57:23.138Z,64.75
2019-05-13T03:59:52.567Z,64.02
2019-05-13T04:02:22.633Z,63.53
2019-05-13T04:04:53.026Z,63.38
2019-05-13T04:07:23.540Z,62.61
2019-05-13T04:09:52.522Z,62.54
2019-05-13T04:12:22.791Z,62.67
2019-05-13T04:14:52.817Z,61.83
2019-05-13T04:17:24.364Z,61.60
2019-05-13T04:19:53.003Z,62.29
2019-05-13T04:22:23.038Z,61.86
2019-05-13T04:24:53.026Z,62.24
2019-05-13T04:27:23.367Z,61.91
2019-05-13T04:29:52.754Z,61.38
2019-05-13T04:32:22.916Z,61.97
2019-05-13T04:34:52.922Z,61.37
2019-05-13T04:37:22.296Z,61.73
2019-05-13T04:39:55.481Z,62.60
2019-05-13T04:42:23.100Z,61.29
2019-05-13T04:44:52.958Z,61.76
2019-05-13T04:47:22.917Z,61.91
2019-05-13T04:49:53.322Z,61.29
2019-05-13T04:52:22.241Z,61.09
2019-05-13T04:54:52.831Z,60.63
2019-05-13T04:57:22.722Z,61.18
2019-05-13T04:59:51.810Z,59.91
2019-05-13T05:02:58.817Z,59.92
2019-05-13T05:05:42.069Z,59.19
2019-05-13T05:08:53.806Z,59.46
2019-05-13T05:11:48.962Z,59.45
2019-05-13T05:14:41.877Z,59.33
2019-05-13T05:17:44.235Z,59.39
2019-05-13T05:21:01.952Z,58.44
2019-05-13T05:24:01.855Z,58.24
2019-05-13T05:27:11.941Z,58.06
2019-05-13T05:29:51.685Z,59.04
2019-05-13T05:32:37.876Z,58.85
2019-05-13T05:36:02.727Z,58.13
2019-05-13T05:38:56.140Z,58.00
2019-05-13T05:41:26.616Z,57.49
2019-05-13T05:43:56.413Z,58.05
2019-05-13T05:46:24.887Z,57.80
2019-05-13T05:48:53.623Z,57.76
2019-05-13T05:51:22.238Z,57.50
2019-05-13T05:53:51.711Z,58.33
2019-05-13T05:56:22.018Z,56.86
2019-05-13T05:58:52.422Z,57.05
2019-05-13T06:01:23.323Z,57.29
2019-05-13T06:03:52.591Z,56.28
2019-05-13T06:06:22.765Z,56.71
2019-05-13T06:08:51.664Z,57.44
2019-05-13T06:11:22.140Z,57.44
2019-05-13T06:13:53.829Z,57.38
2019-05-13T06:16:21.776Z,57.07
2019-05-13T06:18:52.274Z,57.79
2019-05-13T06:21:21.497Z,57.78
2019-05-13T06:23:51.865Z,57.14
2019-05-13T06:26:23.349Z,58.37
2019-05-13T06:28:51.861Z,57.95
2019-05-13T06:31:21.388Z,57.28
2019-05-13T06:33:51.285Z,56.46
2019-05-13T06:36:18.986Z,57.40
2019-05-13T06:38:46.993Z,56.72
2019-05-13T06:41:15.032Z,57.55
2019-05-13T06:43:42.965Z,57.57
2019-05-13T06:46:12.424Z,57.13
2019-05-13T06:48:41.551Z,57.28
2019-05-13T06:51:11.580Z,56.75
2019-05-13T06:53:41.459Z,56.04
2019-05-13T06:56:11.960Z,56.13
2019-05-13T06:58:41.362Z,58.33
2019-05-13T07:01:11.424Z,58.76
2019-05-13T07:03:41.799Z,57.52
2019-05-13T07:06:08.797Z,57.43
2019-05-13T07:08:36.663Z,56.63
2019-05-13T07:11:17.639Z,56.88
2019-05-13T07:13:34.462Z,56.08
2019-05-13T07:16:02.477Z,56.37
2019-05-13T07:18:32.307Z,56.84
2019-05-13T07:21:02.173Z,57.34
2019-05-13T07:23:31.864Z,56.93
2019-05-13T07:26:01.670Z,57.09
2019-05-13T07:28:32.329Z,57.96
2019-05-13T07:31:01.949Z,57.65
2019-05-13T07:33:32.067Z,57.91
2019-05-13T07:36:02.746Z,58.28
2019-05-13T07:38:32.289Z,59.62
2019-05-13T07:41:01.859Z,59.03
2019-05-13T07:43:32.336Z,58.90
2019-05-13T07:46:02.098Z,59.14
2019-05-13T07:48:31.868Z,58.66
2019-05-13T07:51:01.368Z,57.84
2019-05-13T07:53:32.048Z,57.51
2019-05-13T07:56:01.762Z,56.73
2019-05-13T07:58:29.025Z,57.80
2019-05-13T08:00:56.953Z,57.43
2019-05-13T08:03:24.983Z,56.85
2019-05-13T08:05:53.904Z,58.04
2019-05-13T08:08:22.146Z,57.47
2019-05-13T08:10:51.941Z,57.22
2019-05-13T08:13:22.288Z,57.07
2019-05-13T08:15:54.333Z,57.72
2019-05-13T08:18:22.120Z,57.54
2019-05-13T08:20:52.288Z,57.22
2019-05-13T08:23:21.653Z,56.43
2019-05-13T08:25:51.442Z,56.66
2019-05-13T08:28:19.637Z,56.96
2019-05-13T08:30:47.486Z,57.10
2019-05-13T08:33:15.759Z,56.50
2019-05-13T08:35:47.161Z,56.80
2019-05-13T08:38:13.560Z,56.47
2019-05-13T08:40:42.444Z,56.38
2019-05-13T08:43:12.067Z,55.44
2019-05-13T08:45:42.096Z,56.57
2019-05-13T08:48:12.830Z,56.05
2019-05-13T08:50:41.993Z,56.09
2019-05-13T08:53:12.162Z,57.08
2019-05-13T08:55:42.252Z,56.76
2019-05-13T08:58:12.261Z,55.86
2019-05-13T09:00:52.852Z,57.72
2019-05-13T09:03:21.582Z,57.49
2019-05-13T09:05:52.161Z,57.92
2019-05-13T09:08:22.350Z,58.31
2019-05-13T09:10:52.063Z,59.85
2019-05-13T09:13:22.362Z,61.20
2019-05-13T09:15:51.720Z,60.45
2019-05-13T09:18:22.482Z,60.98
2019-05-13T09:20:52.076Z,61.43
2019-05-13T09:23:22.298Z,62.77
2019-05-13T09:25:52.127Z,62.48
2019-05-13T09:28:21.830Z,66.00
2019-05-13T09:30:53.122Z,64.61
2019-05-13T09:33:21.903Z,65.77
2019-05-13T09:35:53.415Z,65.82
2019-05-13T09:38:22.115Z,65.15
2019-05-13T09:40:52.828Z,65.33
2019-05-13T09:43:22.222Z,65.49
2019-05-13T09:45:52.259Z,64.68
2019-05-13T09:48:22.447Z,66.32
2019-05-13T09:50:51.709Z,64.23
2019-05-13T09:53:22.252Z,64.22
2019-05-13T09:55:52.182Z,65.30
2019-05-13T09:58:22.331Z,62.26
2019-05-13T10:00:52.453Z,63.54
2019-05-13T10:03:26.605Z,64.82
2019-05-13T10:05:51.837Z,64.08
2019-05-13T10:08:21.949Z,62.33
2019-05-13T10:10:52.323Z,63.27
2019-05-13T10:13:22.682Z,62.01
2019-05-13T10:15:50.459Z,62.73
2019-05-13T10:18:18.552Z,63.98
2019-05-13T10:20:58.299Z,64.65
2019-05-13T10:23:24.931Z,63.16
2019-05-13T10:25:55.344Z,63.55
2019-05-13T10:28:23.642Z,64.32
2019-05-13T10:30:53.154Z,65.52
2019-05-13T10:33:22.162Z,64.46
2019-05-13T10:35:52.405Z,66.44
2019-05-13T10:38:22.280Z,65.69
2019-05-13T10:40:52.026Z,64.45
2019-05-13T10:43:31.139Z,66.90
2019-05-13T10:45:52.257Z,64.79
2019-05-13T10:48:22.053Z,65.52
2019-05-13T10:50:52.998Z,63.76
2019-05-13T10:53:21.981Z,62.82
2019-05-13T10:55:52.240Z,66.88
2019-05-13T10:58:23.445Z,66.45
2019-05-13T11:00:51.968Z,64.98
2019-05-13T11:03:23.027Z,65.00
2019-05-13T11:05:52.582Z,66.08
2019-05-13T11:08:22.160Z,63.90
2019-05-13T11:10:53.155Z,64.02
2019-05-13T11:13:23.261Z,64.86
2019-05-13T11:15:57.099Z,64.15
2019-05-13T11:18:23.706Z,64.21
2019-05-13T11:20:50.422Z,63.36
2019-05-13T11:23:18.347Z,62.95
2019-05-13T11:25:46.344Z,63.24
2019-05-13T11:28:14.307Z,61.92
2019-05-13T11:30:42.478Z,62.62
2019-05-13T11:33:10.385Z,62.48
2019-05-13T11:35:38.533Z,61.55
2019-05-13T11:38:06.394Z,60.77
2019-05-13T11:40:34.468Z,61.43
2019-05-13T11:43:02.335Z,62.50
2019-05-13T11:45:31.597Z,61.46
2019-05-13T11:48:02.239Z,60.97
2019-05-13T11:50:30.119Z,61.20
2019-05-13T11:52:58.204Z,61.01
2019-05-13T11:55:26.254Z,60.91
2019-05-13T11:57:54.297Z,61.03
2019-05-13T12:00:53.287Z,59.65
2019-05-13T12:03:23.387Z,60.16
2019-05-13T12:05:53.959Z,59.62
2019-05-13T12:08:22.726Z,58.37
2019-05-13T12:10:52.012Z,58.42
2019-05-13T12:13:22.677Z,58.43
2019-05-13T12:15:53.276Z,57.63
2019-05-13T12:18:23.342Z,57.92
2019-05-13T12:20:53.625Z,58.15
2019-05-13T12:23:20.043Z,57.81
2019-05-13T12:25:47.725Z,58.46
2019-05-13T12:28:15.626Z,58.58
2019-05-13T12:30:43.710Z,59.46
2019-05-13T12:33:13.523Z,59.88
2019-05-13T12:35:41.607Z,57.61
2019-05-13T12:38:12.968Z,58.98
2019-05-13T12:40:42.623Z,58.62
2019-05-13T12:43:12.633Z,58.17
2019-05-13T12:45:42.862Z,59.57
2019-05-13T12:48:09.427Z,59.46
2019-05-13T12:50:37.587Z,58.12
2019-05-13T12:53:05.820Z,57.50
2019-05-13T12:55:33.738Z,57.76
2019-05-13T12:58:02.666Z,57.36
2019-05-13T13:00:32.932Z,57.40
2019-05-13T13:03:02.135Z,57.61
2019-05-13T13:05:36.218Z,57.36
2019-05-13T13:08:18.210Z,56.86
2019-05-13T13:10:34.551Z,56.67
2019-05-13T13:13:02.166Z,57.89
2019-05-13T13:15:38.341Z,57.17
2019-05-13T13:18:02.430Z,56.70
2019-05-13T13:20:32.660Z,57.85
2019-05-13T13:23:03.350Z,57.00
2019-05-13T13:25:33.594Z,58.25
2019-05-13T13:28:10.534Z,59.02
2019-05-13T13:30:34.582Z,59.02
2019-05-13T13:33:02.797Z,60.05
2019-05-13T13:35:33.733Z,58.67
2019-05-13T13:38:04.114Z,58.84
2019-05-13T13:40:34.642Z,58.08
2019-05-13T13:43:05.218Z,58.93
2019-05-13T13:45:37.424Z,59.11
2019-05-13T13:48:03.938Z,59.22
2019-05-13T13:50:33.575Z,59.79
2019-05-13T13:53:00.806Z,59.99
2019-05-13T13:55:31.429Z,58.81
2019-05-13T13:57:58.988Z,59.21
2019-05-13T14:00:38.110Z,59.64
2019-05-13T14:02:56.919Z,58.87
2019-05-13T14:05:25.152Z,58.93
2019-05-13T14:07:53.252Z,59.70
2019-05-13T14:10:22.100Z,60.02
2019-05-13T14:12:52.289Z,60.01
2019-05-13T14:15:21.569Z,60.22
2019-05-13T14:17:51.653Z,60.38
2019-05-13T14:20:21.937Z,59.96
2019-05-13T14:22:56.599Z,60.08
2019-05-13T14:25:22.228Z,60.29
2019-05-13T14:27:49.540Z,60.52
2019-05-13T14:30:18.137Z,58.91
2019-05-13T14:32:46.110Z,59.83
2019-05-13T14:35:14.159Z,59.60
2019-05-13T14:37:42.045Z,59.76
2019-05-13T14:40:12.178Z,60.76
2019-05-13T14:42:42.447Z,60.40
2019-05-13T14:45:12.130Z,60.39
2019-05-13T14:47:39.956Z,60.51
2019-05-13T14:50:08.286Z,59.88
2019-05-13T14:52:36.274Z,58.92
2019-05-13T14:55:04.653Z,59.53
2019-05-13T14:57:32.841Z,59.41
2019-05-13T15:00:02.422Z,59.82
2019-05-13T15:02:35.623Z,60.26
2019-05-13T15:05:02.742Z,60.25
2019-05-13T15:07:32.235Z,61.29
2019-05-13T15:10:02.359Z,61.57
2019-05-13T15:12:32.313Z,62.19
2019-05-13T15:15:01.452Z,62.52
2019-05-13T15:17:32.483Z,62.35
2019-05-13T15:20:01.886Z,61.69
2019-05-13T15:22:31.887Z,61.72
2019-05-13T15:25:02.546Z,62.07
2019-05-13T15:27:31.797Z,62.15
2019-05-13T15:30:14.390Z,61.75
2019-05-13T15:32:32.556Z,61.53
2019-05-13T15:35:02.158Z,61.33
2019-05-13T15:37:32.167Z,60.79
2019-05-13T15:40:02.323Z,60.38
2019-05-13T15:42:31.951Z,60.61
2019-05-13T15:45:01.866Z,60.76
2019-05-13T15:47:31.229Z,61.07
2019-05-13T15:50:02.390Z,61.44
2019-05-13T15:52:31.655Z,61.30
2019-05-13T15:55:01.447Z,62.48
2019-05-13T15:57:31.436Z,62.51
2019-05-13T16:00:01.975Z,62.90
2019-05-13T16:02:31.337Z,61.93
2019-05-13T16:05:02.239Z,62.54
2019-05-13T16:07:29.784Z,61.14
2019-05-13T16:09:57.851Z,60.70
2019-05-13T16:12:26.124Z,60.64
2019-05-13T16:14:54.513Z,61.07
2019-05-13T16:17:37.536Z,61.13
2019-05-13T16:19:53.465Z,61.46
2019-05-13T16:22:23.077Z,61.04
2019-05-13T16:24:52.197Z,60.89
2019-05-13T16:27:21.741Z,60.39
2019-05-13T16:29:51.565Z,61.01
2019-05-13T16:32:19.414Z,61.51
2019-05-13T16:34:47.512Z,61.40
2019-05-13T16:37:15.450Z,60.88
2019-05-13T16:39:43.778Z,60.35
2019-05-13T16:42:12.030Z,60.46
2019-05-13T16:44:42.994Z,61.02
2019-05-13T16:47:12.340Z,61.13
2019-05-13T16:49:41.099Z,60.90
2019-05-13T16:52:11.484Z,60.81
2019-05-13T16:54:42.200Z,61.29
2019-05-13T16:57:09.443Z,61.43
2019-05-13T16:59:37.432Z,60.42
2019-05-13T17:02:05.885Z,60.38
2019-05-13T17:04:33.887Z,60.79
2019-05-13T17:07:02.044Z,60.64
2019-05-13T17:09:32.339Z,61.14
2019-05-13T17:12:01.457Z,60.57
2019-05-13T17:14:32.053Z,60.24
2019-05-13T17:17:01.220Z,61.11
2019-05-13T17:19:31.602Z,61.14
2019-05-13T17:22:00.427Z,60.14
2019-05-13T17:24:31.871Z,60.19
2019-05-13T17:27:01.686Z,59.67
2019-05-13T17:29:31.551Z,59.68
2019-05-13T17:32:00.062Z,59.61
2019-05-13T17:34:31.629Z,60.53
2019-05-13T17:37:02.339Z,60.19
2019-05-13T17:39:31.942Z,59.94
2019-05-13T17:42:01.483Z,60.71
2019-05-13T17:44:31.868Z,59.96
2019-05-13T17:47:01.686Z,60.71
2019-05-13T17:49:31.852Z,59.75
2019-05-13T17:52:02.313Z,60.24
2019-05-13T17:54:31.861Z,59.97
2019-05-13T17:57:01.905Z,59.78
2019-05-13T17:59:31.429Z,59.80
2019-05-13T18:02:02.321Z,60.74
2019-05-13T18:04:31.437Z,61.08
2019-05-13T18:07:01.599Z,60.01
2019-05-13T18:09:31.966Z,59.99
2019-05-13T18:12:02.166Z,60.30
2019-05-13T18:14:29.889Z,60.08
2019-05-13T18:16:58.185Z,59.90
2019-05-13T18:19:26.252Z,60.82
2019-05-13T18:21:54.347Z,60.91
2019-05-13T18:24:22.671Z,60.04
2019-05-13T18:26:52.101Z,60.07
2019-05-13T18:29:22.550Z,60.44
2019-05-13T18:31:52.414Z,60.20
2019-05-13T18:34:21.700Z,59.90
2019-05-13T18:36:51.598Z,59.70
2019-05-13T18:39:21.588Z,61.03
2019-05-13T18:41:49.930Z,60.31
2019-05-13T18:44:17.976Z,60.36
2019-05-13T18:46:46.080Z,60.83
2019-05-13T18:49:14.307Z,60.33
2019-05-13T18:51:42.487Z,59.93
2019-05-13T18:54:11.913Z,60.03
2019-05-13T18:56:41.593Z,60.36
2019-05-13T18:59:12.341Z,60.15
2019-05-13T19:01:39.963Z,60.90
2019-05-13T19:04:07.976Z,60.57
2019-05-13T19:06:35.843Z,60.52
2019-05-13T19:09:05.028Z,60.37
2019-05-13T19:11:33.268Z,60.74
2019-05-13T19:14:01.254Z,61.10
2019-05-13T19:16:29.190Z,61.31
2019-05-13T19:18:56.987Z,60.89
2019-05-13T19:21:25.121Z,61.06
2019-05-13T19:23:53.236Z,60.82
2019-05-13T19:26:21.880Z,61.53
2019-05-13T19:28:51.613Z,60.94
2019-05-13T19:31:22.096Z,60.80
2019-05-13T19:33:52.049Z,61.23
2019-05-13T19:36:21.089Z,60.60
2019-05-13T19:38:51.189Z,61.96
2019-05-13T19:41:19.152Z,61.63
2019-05-13T19:43:47.402Z,62.16
2019-05-13T19:46:15.785Z,61.75
2019-05-13T19:48:43.704Z,61.78
2019-05-13T19:51:12.261Z,60.90
2019-05-13T19:53:41.506Z,60.50
2019-05-13T19:56:11.779Z,60.59
2019-05-13T19:58:39.554Z,60.74
2019-05-13T20:01:07.519Z,60.72
2019-05-13T20:03:35.366Z,60.61
2019-05-13T20:06:03.356Z,60.02
2019-05-13T20:08:32.074Z,60.51
2019-05-13T20:11:02.158Z,60.85
2019-05-13T20:13:30.546Z,61.06
2019-05-13T20:16:01.448Z,60.90
2019-05-13T20:18:32.025Z,60.05
2019-05-13T20:21:01.231Z,60.44
2019-05-13T20:23:31.842Z,60.65
2019-05-13T20:25:59.592Z,59.87
2019-05-13T20:28:27.671Z,59.95
2019-05-13T20:30:55.634Z,59.84
2019-05-13T20:33:23.760Z,60.00
2019-05-13T20:35:52.207Z,59.12
2019-05-13T20:38:22.107Z,60.02
2019-05-13T20:40:51.910Z,58.76
2019-05-13T20:43:22.320Z,59.28
2019-05-13T20:45:51.797Z,59.31
2019-05-13T20:48:21.236Z,58.70
2019-05-13T20:50:51.788Z,58.73
2019-05-13T20:53:21.147Z,58.70
2019-05-13T20:55:49.481Z,57.92
2019-05-13T20:58:17.569Z,58.02
2019-05-13T21:00:45.780Z,57.88
2019-05-13T21:03:13.816Z,58.19
2019-05-13T21:05:41.851Z,57.84
2019-05-13T21:08:09.952Z,57.96
2019-05-13T21:10:37.982Z,57.38
2019-05-13T21:13:05.999Z,56.74
2019-05-13T21:15:34.044Z,57.11
2019-05-13T21:18:02.298Z,57.79
2019-05-13T21:20:32.112Z,57.84
2019-05-13T21:23:02.286Z,56.96
2019-05-13T21:25:31.076Z,57.71
2019-05-13T21:27:59.398Z,58.15
2019-05-13T21:30:28.661Z,57.35
2019-05-13T21:32:56.798Z,56.95
2019-05-13T21:35:26.984Z,57.65
2019-05-13T21:37:55.360Z,57.41
2019-05-13T21:40:28.974Z,58.28
2019-05-13T21:42:58.134Z,57.53
2019-05-13T21:45:28.708Z,57.45
2019-05-13T21:48:03.893Z,57.49
2019-05-13T21:50:37.234Z,57.14
2019-05-13T21:53:02.816Z,56.54
2019-05-13T21:55:31.014Z,56.04
2019-05-13T21:57:59.109Z,56.46
2019-05-13T22:00:32.691Z,56.10
2019-05-13T22:03:02.146Z,56.14
2019-05-13T22:05:31.428Z,55.63
2019-05-13T22:08:01.561Z,56.16
2019-05-13T22:10:31.062Z,55.95
2019-05-13T22:13:01.455Z,56.82
2019-05-13T22:15:32.160Z,56.00
2019-05-13T22:18:01.806Z,56.70
2019-05-13T22:20:31.710Z,55.88
2019-05-13T22:23:01.344Z,55.45
2019-05-13T22:25:29.248Z,55.83
2019-05-13T22:27:57.173Z,55.24
2019-05-13T22:30:25.033Z,55.64
2019-05-13T22:32:53.012Z,55.76
2019-05-13T22:35:21.784Z,55.71
2019-05-13T22:37:51.233Z,55.71
2019-05-13T22:40:21.716Z,55.79
2019-05-13T22:42:56.314Z,55.48
2019-05-13T22:45:19.065Z,55.70
2019-05-13T22:47:47.176Z,55.38
2019-05-13T22:50:15.467Z,55.37
2019-05-13T22:52:43.308Z,54.97
2019-05-13T22:55:12.927Z,54.87
2019-05-13T22:57:41.999Z,54.88
2019-05-13T23:00:11.852Z,54.10
2019-05-13T23:02:42.385Z,54.50
2019-05-13T23:05:11.308Z,54.15
2019-05-13T23:07:39.295Z,54.43
2019-05-13T23:10:07.560Z,54.64
2019-05-13T23:12:37.547Z,55.12
2019-05-13T23:15:06.945Z,55.20
2019-05-13T23:17:35.053Z,55.84
2019-05-13T23:20:03.085Z,55.70
2019-05-13T23:22:32.211Z,55.95
2019-05-13T23:25:01.623Z,55.81
2019-05-13T23:27:31.999Z,55.72
2019-05-13T23:30:01.137Z,55.83
2019-05-13T23:32:32.033Z,55.97
2019-05-13T23:35:02.000Z,56.21
2019-05-13T23:37:31.064Z,56.13
2019-05-13T23:40:01.248Z,56.36
2019-05-13T23:42:28.833Z,56.09
2019-05-13T23:44:56.748Z,55.95
2019-05-13T23:47:24.797Z,55.33
2019-05-13T23:49:52.387Z,55.27
2019-05-13T23:52:21.978Z,56.10
2019-05-13T23:54:51.686Z,56.08
2019-05-13T23:57:22.201Z,55.81
2019-05-13T23:59:51.125Z,55.09
